Time;durP1;ratioP1;P1;durP2;ratioP2;P2;SDS_P1;SDS_P2;PMS_P1;PMS_P2;Temp;Humidity;BMP_temperature;BMP_pressure;BME280_temperature;BME280_humidity;BME280_pressure;Samples;Min_cycle;Max_cycle;Signal;HPM_P1;HPM_P2
2021/05/29 00:01:15;;;;;;;7.35;4.95;;;13.90;99.90;;;;;;5024050;28;20267;-81
2021/05/29 00:03:40;;;;;;;6.43;4.85;;;13.80;99.90;;;;;;5076608;28;20163;-82
2021/05/29 00:06:06;;;;;;;5.45;4.95;;;13.80;99.90;;;;;;5069803;28;20257;-81
2021/05/29 00:08:32;;;;;;;8.27;6.78;;;13.80;99.90;;;;;;5054538;28;20174;-82
2021/05/29 00:11:00;;;;;;;8.20;5.95;;;13.80;99.90;;;;;;5058309;28;20170;-82
2021/05/29 00:13:27;;;;;;;5.85;5.32;;;13.80;99.90;;;;;;5076430;28;20623;-82
2021/05/29 00:15:53;;;;;;;7.93;6.38;;;13.70;99.90;;;;;;5076332;28;20194;-82
2021/05/29 00:18:19;;;;;;;5.50;4.97;;;13.70;99.90;;;;;;5075133;28;20623;-82
2021/05/29 00:20:46;;;;;;;7.72;5.03;;;13.70;99.90;;;;;;5058601;28;20201;-83
2021/05/29 00:23:12;;;;;;;7.70;5.53;;;13.70;99.90;;;;;;5076227;28;20167;-82
2021/05/29 00:25:39;;;;;;;6.20;5.50;;;13.70;99.90;;;;;;5076062;28;20512;-82
2021/05/29 00:28:05;;;;;;;6.72;5.10;;;13.70;99.90;;;;;;5064667;28;20529;-82
2021/05/29 00:30:31;;;;;;;6.28;5.25;;;13.80;99.90;;;;;;5056313;28;20175;-82
2021/05/29 00:32:56;;;;;;;10.57;4.95;;;13.70;99.90;;;;;;5070095;28;20408;-82
2021/05/29 00:35:23;;;;;;;6.22;5.03;;;13.70;99.90;;;;;;5075748;28;20659;-82
2021/05/29 00:37:49;;;;;;;10.00;5.80;;;13.60;99.90;;;;;;5048550;28;20187;-81
2021/05/29 00:40:15;;;;;;;7.50;5.97;;;13.60;99.90;;;;;;5019208;28;20176;-82
2021/05/29 00:42:41;;;;;;;8.95;6.05;;;13.50;99.90;;;;;;5035720;28;20179;-82
2021/05/29 00:45:07;;;;;;;8.77;5.75;;;13.60;99.90;;;;;;5035949;28;20251;-82
2021/05/29 00:47:33;;;;;;;6.55;5.75;;;13.60;99.90;;;;;;5054145;28;20167;-82
2021/05/29 00:50:02;;;;;;;6.40;5.07;;;13.60;99.90;;;;;;5073757;28;20179;-81
2021/05/29 00:52:28;;;;;;;10.38;5.47;;;13.60;99.90;;;;;;5075588;28;20224;-82
2021/05/29 00:54:54;;;;;;;8.50;5.60;;;13.60;99.90;;;;;;5075649;28;20179;-82
2021/05/29 00:57:20;;;;;;;6.47;5.20;;;13.70;99.90;;;;;;5056208;28;20181;-82
2021/05/29 00:59:47;;;;;;;6.47;5.85;;;13.70;99.90;;;;;;5038965;28;20163;-82
2021/05/29 01:02:16;;;;;;;6.45;4.70;;;13.80;99.90;;;;;;5037236;28;20175;-82
2021/05/29 01:04:46;;;;;;;5.70;5.15;;;13.80;99.90;;;;;;5055149;28;20171;-82
2021/05/29 01:07:14;;;;;;;10.45;5.00;;;13.90;99.90;;;;;;5072402;28;20231;-82
2021/05/29 01:09:42;;;;;;;5.45;4.95;;;13.90;99.90;;;;;;5039819;28;20191;-82
2021/05/29 01:12:09;;;;;;;10.48;5.57;;;13.90;99.90;;;;;;5037534;28;20178;-82
2021/05/29 01:14:46;;;;;;;5.30;4.80;;;14.00;99.90;;;;;;5055295;28;20163;-82
2021/05/29 01:17:11;;;;;;;9.63;4.60;;;14.00;99.90;;;;;;5037303;28;20194;-82
2021/05/29 01:19:37;;;;;;;5.53;4.90;;;14.10;99.90;;;;;;5073785;28;20544;-82
2021/05/29 01:22:11;;;;;;;5.75;4.82;;;14.00;99.90;;;;;;5073124;28;20200;-82
2021/05/29 01:24:38;;;;;;;7.47;5.50;;;14.10;99.90;;;;;;5052399;28;20502;-82
2021/05/29 01:27:05;;;;;;;6.65;4.93;;;14.00;99.90;;;;;;5075008;28;20174;-82
2021/05/29 01:29:30;;;;;;;12.27;5.03;;;14.00;99.90;;;;;;5068393;28;20164;-82
2021/05/29 01:32:02;;;;;;;11.18;5.15;;;14.00;99.90;;;;;;5055808;28;20182;-82
2021/05/29 01:34:37;;;;;;;6.40;5.35;;;14.00;99.90;;;;;;5056508;28;20185;-82
2021/05/29 01:37:04;;;;;;;8.23;5.57;;;14.00;99.90;;;;;;5056581;28;20186;-82
2021/05/29 01:39:30;;;;;;;5.82;5.00;;;14.00;99.90;;;;;;5074821;28;20221;-82
2021/05/29 01:41:56;;;;;;;6.20;5.15;;;14.10;99.90;;;;;;5071405;28;20171;-82
2021/05/29 01:44:23;;;;;;;5.32;4.82;;;14.10;99.90;;;;;;5056319;28;20174;-82
2021/05/29 01:46:50;;;;;;;9.00;4.88;;;14.20;99.90;;;;;;5074474;28;20212;-82
2021/05/29 01:49:17;;;;;;;6.25;4.97;;;14.30;99.90;;;;;;5056684;28;20159;-82
2021/05/29 01:51:43;;;;;;;11.93;4.68;;;14.30;99.90;;;;;;5060371;28;20172;-81
2021/05/29 01:54:09;;;;;;;5.05;4.35;;;14.30;99.90;;;;;;5055606;28;20628;-82
2021/05/29 01:56:35;;;;;;;5.40;3.78;;;14.40;99.90;;;;;;5054348;28;20222;-83
2021/05/29 01:59:00;;;;;;;4.60;4.20;;;14.40;99.90;;;;;;5020156;28;20562;-82
2021/05/29 02:01:26;;;;;;;4.78;4.38;;;14.40;99.90;;;;;;5047422;28;20206;-82
2021/05/29 02:03:52;;;;;;;6.65;4.20;;;14.50;99.90;;;;;;5054528;28;20182;-82
2021/05/29 02:06:18;;;;;;;5.35;4.60;;;14.60;99.90;;;;;;5055952;28;20228;-81
2021/05/29 02:08:43;;;;;;;9.25;4.35;;;14.60;99.90;;;;;;5080050;28;20334;-82
2021/05/29 02:11:09;;;;;;;5.38;4.68;;;14.70;99.90;;;;;;5085879;28;20159;-82
2021/05/29 02:13:40;;;;;;;5.80;4.57;;;14.70;99.90;;;;;;5083994;28;20167;-82
2021/05/29 02:16:09;;;;;;;6.30;4.65;;;14.60;99.90;;;;;;5076173;28;20191;-81
2021/05/29 02:18:35;;;;;;;6.38;5.20;;;14.60;99.90;;;;;;5057074;28;20180;-82
2021/05/29 02:21:03;;;;;;;6.13;5.55;;;14.40;99.90;;;;;;5046164;28;20188;-82
2021/05/29 02:23:30;;;;;;;5.88;4.95;;;14.40;99.90;;;;;;5034896;28;20318;-82
2021/05/29 02:26:01;;;;;;;6.43;5.60;;;14.30;99.90;;;;;;5035909;28;20545;-82
2021/05/29 02:28:28;;;;;;;11.27;6.18;;;14.00;99.90;;;;;;5034911;28;20171;-82
2021/05/29 02:30:54;;;;;;;9.50;6.00;;;13.90;99.90;;;;;;5046102;28;20198;-82
2021/05/29 02:33:21;;;;;;;6.45;5.65;;;13.80;99.90;;;;;;5031519;28;20179;-82
2021/05/29 02:35:47;;;;;;;7.40;6.15;;;13.80;99.90;;;;;;5032363;28;20216;-82
2021/05/29 02:38:13;;;;;;;10.80;5.95;;;13.80;99.90;;;;;;5031589;28;20177;-82
2021/05/29 02:40:39;;;;;;;10.90;6.07;;;13.80;99.90;;;;;;5017262;28;20692;-82
2021/05/29 02:43:05;;;;;;;13.80;6.00;;;13.60;99.90;;;;;;5016893;28;20190;-82
2021/05/29 02:45:31;;;;;;;7.63;6.82;;;13.60;99.90;;;;;;5049482;28;20179;-82
2021/05/29 02:47:56;;;;;;;10.75;6.13;;;13.50;99.90;;;;;;5035657;28;20191;-82
2021/05/29 02:50:23;;;;;;;6.65;6.05;;;13.40;99.90;;;;;;5019356;28;20174;-82
2021/05/29 02:52:49;;;;;;;14.43;6.72;;;13.30;99.90;;;;;;5056931;28;20194;-82
2021/05/29 02:55:22;;;;;;;6.90;6.15;;;13.20;99.90;;;;;;5054175;28;20214;-82
2021/05/29 02:57:53;;;;;;;8.38;6.13;;;13.10;99.90;;;;;;5015849;28;20227;-82
2021/05/29 03:00:21;;;;;;;10.93;6.47;;;13.10;99.90;;;;;;5033646;28;20153;-82
2021/05/29 03:02:46;;;;;;;8.10;6.35;;;13.10;99.90;;;;;;5020545;28;20534;-82
2021/05/29 03:05:13;;;;;;;14.82;6.75;;;13.10;99.90;;;;;;5072541;28;20191;-82
2021/05/29 03:07:39;;;;;;;9.73;7.57;;;13.00;99.90;;;;;;5053750;28;20159;-82
2021/05/29 03:10:07;;;;;;;8.77;7.15;;;13.00;99.90;;;;;;5030668;28;20180;-82
2021/05/29 03:12:39;;;;;;;7.45;6.65;;;13.10;99.90;;;;;;5033365;28;20278;-82
2021/05/29 03:15:11;;;;;;;8.93;7.32;;;12.90;99.90;;;;;;5032209;28;20190;-82
2021/05/29 03:17:37;;;;;;;9.85;7.35;;;12.90;99.90;;;;;;5048962;28;20170;-82
2021/05/29 03:20:05;;;;;;;7.95;6.78;;;12.80;99.90;;;;;;5068750;28;20258;-81
2021/05/29 03:22:31;;;;;;;7.43;6.82;;;12.70;99.90;;;;;;5053257;28;20167;-82
2021/05/29 03:24:57;;;;;;;7.63;6.82;;;12.60;99.90;;;;;;5053201;28;20289;-82
2021/05/29 03:27:24;;;;;;;10.02;7.22;;;12.60;99.90;;;;;;5057867;28;20163;-82
2021/05/29 03:29:50;;;;;;;8.55;7.75;;;12.60;99.90;;;;;;5059101;28;20163;-82
2021/05/29 03:32:15;;;;;;;8.20;7.40;;;12.70;99.90;;;;;;5059304;28;20523;-82
2021/05/29 03:34:42;;;;;;;8.15;7.40;;;12.60;99.90;;;;;;5077230;28;20167;-82
2021/05/29 03:37:08;;;;;;;8.68;7.53;;;12.60;99.90;;;;;;5077178;28;20295;-82
2021/05/29 03:39:34;;;;;;;10.68;7.88;;;12.60;99.90;;;;;;5075192;28;20643;-82
2021/05/29 03:42:00;;;;;;;10.00;8.18;;;12.50;99.90;;;;;;5039638;28;20253;-82
2021/05/29 03:44:26;;;;;;;10.05;7.95;;;12.50;99.90;;;;;;5039317;28;20167;-82
2021/05/29 03:46:52;;;;;;;11.05;8.07;;;12.40;99.90;;;;;;5022594;28;20620;-82
2021/05/29 03:49:17;;;;;;;11.25;8.57;;;12.50;99.90;;;;;;5040111;28;20262;-82
2021/05/29 03:51:43;;;;;;;9.85;8.95;;;12.60;99.90;;;;;;5054418;28;20211;-82
2021/05/29 03:54:09;;;;;;;13.40;8.18;;;12.70;99.90;;;;;;5076677;28;20175;-82
2021/05/29 03:56:35;;;;;;;9.63;8.00;;;12.70;99.90;;;;;;5076653;28;20281;-81
2021/05/29 03:59:03;;;;;;;10.10;7.78;;;12.60;99.90;;;;;;5058756;28;20174;-82
2021/05/29 04:01:29;;;;;;;10.57;8.15;;;12.60;99.90;;;;;;5052696;28;20266;-81
2021/05/29 04:03:54;;;;;;;12.10;8.80;;;12.60;99.90;;;;;;5076676;28;20257;-82
2021/05/29 04:06:20;;;;;;;10.48;8.00;;;12.60;99.90;;;;;;5076947;28;20254;-81
2021/05/29 04:08:45;;;;;;;10.25;9.25;;;12.60;99.90;;;;;;5057896;28;20254;-82
2021/05/29 04:11:11;;;;;;;9.82;8.93;;;12.60;99.90;;;;;;5042821;28;20174;-82
2021/05/29 04:13:37;;;;;;;12.45;10.55;;;12.70;99.90;;;;;;5075789;28;20266;-82
2021/05/29 04:16:02;;;;;;;16.45;10.95;;;12.70;99.90;;;;;;5076399;28;20301;-82
2021/05/29 04:18:28;;;;;;;15.23;12.07;;;12.70;99.90;;;;;;5076141;28;20660;-81
2021/05/29 04:20:54;;;;;;;20.55;12.73;;;12.70;99.90;;;;;;5067940;28;20229;-81
2021/05/29 04:23:19;;;;;;;17.45;10.98;;;12.70;99.90;;;;;;5076271;28;20163;-82
2021/05/29 04:25:45;;;;;;;17.58;12.80;;;12.70;99.90;;;;;;5058322;28;20234;-82
2021/05/29 04:28:11;;;;;;;19.30;12.23;;;12.80;99.90;;;;;;5076473;28;20595;-82
2021/05/29 04:30:37;;;;;;;15.65;10.40;;;12.70;99.90;;;;;;5073923;28;20174;-82
2021/05/29 04:33:03;;;;;;;18.25;10.98;;;12.60;99.90;;;;;;5071814;28;20179;-82
2021/05/29 04:35:29;;;;;;;12.45;10.60;;;12.60;99.90;;;;;;5057905;28;20662;-82
2021/05/29 04:37:54;;;;;;;11.25;10.20;;;12.60;99.90;;;;;;5045483;28;20190;-82
2021/05/29 04:40:23;;;;;;;13.13;10.52;;;12.90;99.90;;;;;;5038218;28;20679;-82
2021/05/29 04:42:50;;;;;;;9.80;8.80;;;13.10;99.90;;;;;;5023505;28;20194;-81
2021/05/29 04:45:16;;;;;;;9.82;8.50;;;13.60;99.90;;;;;;5055747;28;20180;-82
2021/05/29 04:47:42;;;;;;;13.98;7.90;;;14.70;99.90;;;;;;5055827;28;20616;-82
2021/05/29 04:50:10;;;;;;;8.38;7.65;;;16.00;99.90;;;;;;5055893;28;20175;-82
2021/05/29 04:52:37;;;;;;;7.55;6.93;;;17.20;99.90;;;;;;5049207;28;20171;-82
2021/05/29 04:55:04;;;;;;;13.95;6.88;;;18.10;99.90;;;;;;5075596;28;20174;-82
2021/05/29 04:57:30;;;;;;;11.05;6.65;;;19.10;99.90;;;;;;5074986;28;20627;-82
2021/05/29 04:59:56;;;;;;;8.93;6.20;;;19.50;99.90;;;;;;5075622;28;20167;-82
2021/05/29 05:02:22;;;;;;;6.70;6.18;;;19.70;99.90;;;;;;5064033;28;20174;-83
2021/05/29 05:04:47;;;;;;;5.72;5.18;;;20.10;99.90;;;;;;5038449;28;20175;-82
2021/05/29 05:07:13;;;;;;;9.63;5.35;;;20.70;99.90;;;;;;5055579;28;20172;-83
2021/05/29 05:09:39;;;;;;;7.78;5.68;;;21.40;99.90;;;;;;5055150;28;20171;-82
2021/05/29 05:12:05;;;;;;;6.10;5.53;;;20.90;99.90;;;;;;5063896;28;20177;-83
2021/05/29 05:14:31;;;;;;;6.68;6.03;;;21.60;99.90;;;;;;5072841;28;20547;-83
2021/05/29 05:16:56;;;;;;;5.55;5.03;;;22.60;99.90;;;;;;5075146;28;20199;-82
2021/05/29 05:19:22;;;;;;;7.07;5.63;;;23.50;99.90;;;;;;5067248;28;20659;-82
2021/05/29 05:21:48;;;;;;;7.00;5.75;;;23.40;99.90;;;;;;5037258;28;20194;-83
2021/05/29 05:24:13;;;;;;;8.75;5.50;;;24.20;99.90;;;;;;5056051;28;20159;-83
2021/05/29 05:26:39;;;;;;;5.88;5.40;;;25.10;99.90;;;;;;5054933;28;20183;-83
2021/05/29 05:29:05;;;;;;;5.53;4.90;;;25.90;99.90;;;;;;5055317;28;20178;-82
2021/05/29 05:31:32;;;;;;;5.97;5.40;;;25.90;99.90;;;;;;5054460;28;20216;-83
2021/05/29 05:33:59;;;;;;;5.35;4.85;;;26.70;99.60;;;;;;5074913;28;20175;-83
2021/05/29 05:36:25;;;;;;;5.82;5.22;;;27.90;98.30;;;;;;5061602;28;20223;-83
2021/05/29 05:38:52;;;;;;;7.93;4.70;;;28.90;96.90;;;;;;5054849;28;20572;-83
2021/05/29 05:41:17;;;;;;;5.68;4.38;;;29.70;95.30;;;;;;5051949;28;20235;-83
2021/05/29 05:43:45;;;;;;;6.30;4.95;;;30.50;94.40;;;;;;5074680;28;20633;-83
2021/05/29 05:46:12;;;;;;;4.90;4.47;;;31.10;91.90;;;;;;5054726;28;20169;-83
2021/05/29 05:48:38;;;;;;;5.30;4.55;;;31.60;91.20;;;;;;5074210;28;20165;-83
2021/05/29 05:51:04;;;;;;;6.75;4.45;;;32.00;90.20;;;;;;5042899;28;20183;-83
2021/05/29 05:53:31;;;;;;;4.32;4.00;;;32.60;87.60;;;;;;5054771;28;20199;-83
2021/05/29 05:56:01;;;;;;;5.30;4.88;;;33.20;85.90;;;;;;5055487;28;20465;-83
2021/05/29 05:58:28;;;;;;;7.20;3.95;;;33.40;82.00;;;;;;5054361;28;20175;-83
2021/05/29 06:00:53;;;;;;;7.43;4.15;;;33.70;81.00;;;;;;5031320;28;20532;-83
2021/05/29 06:03:20;;;;;;;4.68;4.28;;;34.20;78.30;;;;;;5056460;28;20175;-83
2021/05/29 06:05:46;;;;;;;7.45;4.03;;;34.60;77.20;;;;;;5063557;28;20182;-83
2021/05/29 06:08:13;;;;;;;5.90;4.55;;;34.90;75.00;;;;;;5055291;28;20531;-83
2021/05/29 06:10:39;;;;;;;7.53;4.75;;;34.70;72.70;;;;;;5045697;28;20203;-83
2021/05/29 06:13:07;;;;;;;4.82;4.20;;;34.30;75.30;;;;;;5073927;28;20255;-83
2021/05/29 06:20:47;;;;;;;6.10;4.07;;;36.10;71.00;;;;;;5046485;28;20182;-83
2021/05/29 06:23:12;;;;;;;4.95;4.55;;;35.80;71.30;;;;;;5036177;28;20317;-83
2021/05/29 06:25:40;;;;;;;5.72;3.38;;;35.40;70.60;;;;;;5054012;28;20217;-83
2021/05/29 06:28:06;;;;;;;5.13;4.07;;;35.40;69.40;;;;;;5036901;28;20645;-83
2021/05/29 06:30:32;;;;;;;5.55;4.20;;;35.20;68.70;;;;;;5061354;28;20190;-83
2021/05/29 06:32:57;;;;;;;4.65;4.18;;;34.90;69.50;;;;;;5055257;28;20174;-83
2021/05/29 06:35:23;;;;;;;4.32;3.90;;;35.60;69.00;;;;;;5066399;28;20642;-84
2021/05/29 06:37:49;;;;;;;7.55;4.80;;;33.30;69.20;;;;;;5036126;28;20167;-82
2021/05/29 06:40:14;;;;;;;4.22;3.92;;;33.90;71.70;;;;;;5040926;28;20533;-82
2021/05/29 06:42:40;;;;;;;4.10;3.70;;;31.60;72.00;;;;;;5073197;28;20182;-82
2021/05/29 06:45:06;;;;;;;5.25;4.22;;;33.10;72.20;;;;;;5073368;28;20606;-83
2021/05/29 06:47:33;;;;;;;5.93;4.43;;;34.90;70.10;;;;;;5073682;28;20223;-83
2021/05/29 06:49:58;;;;;;;3.85;3.50;;;35.10;68.80;;;;;;5069882;28;20181;-83
2021/05/29 06:52:27;;;;;;;6.57;3.65;;;35.70;68.50;;;;;;5053540;28;20216;-83
2021/05/29 07:00:19;;;;;;;3.75;2.67;;;38.40;63.50;;;;;;5058034;28;20645;-82
2021/05/29 07:02:58;;;;;;;5.95;3.15;;;38.20;64.70;;;;;;5111252;27;20685;-81
2021/05/29 07:05:24;;;;;;;4.63;2.70;;;38.90;63.80;;;;;;5111546;28;20173;-81
2021/05/29 07:07:50;;;;;;;3.20;2.90;;;39.40;63.50;;;;;;5111782;28;20169;-82
2021/05/29 07:10:15;;;;;;;6.13;2.95;;;39.60;61.80;;;;;;5109537;28;20255;-82
2021/05/29 07:12:41;;;;;;;3.45;3.15;;;39.80;60.70;;;;;;5111095;28;20172;-82
2021/05/29 07:15:08;;;;;;;3.90;3.30;;;38.30;59.70;;;;;;5111363;28;20167;-82
2021/05/29 07:17:38;;;;;;;7.93;3.88;;;38.50;62.30;;;;;;5109870;28;20165;-82
2021/05/29 07:20:04;;;;;;;4.18;3.42;;;38.40;60.00;;;;;;5109700;28;20261;-82
2021/05/29 07:22:30;;;;;;;3.78;3.22;;;37.90;60.70;;;;;;5110623;28;20225;-82
2021/05/29 07:24:56;;;;;;;5.07;3.53;;;36.60;63.30;;;;;;5110648;28;20204;-82
2021/05/29 07:27:21;;;;;;;7.65;3.60;;;35.40;64.70;;;;;;5111047;28;20169;-82
2021/05/29 07:29:47;;;;;;;7.80;3.60;;;36.30;64.20;;;;;;5111026;28;20177;-81
2021/05/29 07:32:12;;;;;;;5.88;3.92;;;33.70;66.10;;;;;;5109837;28;20212;-82
2021/05/29 07:34:38;;;;;;;4.50;4.10;;;35.20;63.90;;;;;;5110221;28;20188;-82
2021/05/29 07:37:04;;;;;;;5.18;3.50;;;35.60;63.50;;;;;;5110744;28;20161;-82
2021/05/29 07:39:30;;;;;;;4.47;3.75;;;37.10;65.10;;;;;;5110356;28;20309;-82
2021/05/29 07:41:56;;;;;;;7.88;4.15;;;36.50;61.70;;;;;;5110758;28;20284;-82
2021/05/29 07:44:21;;;;;;;4.50;4.10;;;36.00;65.20;;;;;;5110712;28;20177;-82
2021/05/29 07:46:48;;;;;;;4.30;3.22;;;36.30;62.90;;;;;;5125165;28;20187;-80
2021/05/29 07:49:14;;;;;;;3.67;3.25;;;35.90;66.00;;;;;;5121977;27;20275;-82
2021/05/29 07:51:39;;;;;;;5.72;3.50;;;36.90;63.40;;;;;;5109136;28;20370;-82
2021/05/29 07:54:07;;;;;;;3.55;3.25;;;37.30;61.80;;;;;;5110481;28;20165;-82
2021/05/29 07:56:33;;;;;;;3.85;3.55;;;34.10;65.00;;;;;;5110094;28;20161;-81
2021/05/29 07:59:05;;;;;;;5.80;3.80;;;34.40;65.80;;;;;;5108859;28;20177;-82
2021/05/29 08:01:30;;;;;;;4.65;4.00;;;35.40;66.40;;;;;;5108836;28;20572;-81
2021/05/29 08:03:56;;;;;;;4.35;3.95;;;35.70;62.90;;;;;;5110360;28;20168;-81
2021/05/29 08:06:22;;;;;;;4.60;3.40;;;36.40;67.20;;;;;;5108439;28;20184;-81
2021/05/29 08:08:47;;;;;;;2.63;2.42;;;37.90;62.90;;;;;;5109899;28;20173;-81
2021/05/29 08:11:23;;;;;;;4.93;3.10;;;39.10;62.40;;;;;;5109182;28;20169;-82
2021/05/29 08:13:51;;;;;;;4.05;2.70;;;38.40;60.50;;;;;;5099630;28;20145;-81
2021/05/29 08:16:18;;;;;;;3.20;2.90;;;39.40;59.20;;;;;;5096512;28;20610;-81
2021/05/29 08:18:44;;;;;;;2.67;2.47;;;39.60;58.70;;;;;;5094623;28;20709;-82
2021/05/29 08:21:11;;;;;;;3.30;2.60;;;40.00;58.70;;;;;;5096241;28;20276;-83
2021/05/29 08:23:38;;;;;;;3.08;2.78;;;38.90;58.60;;;;;;5096259;28;20248;-81
2021/05/29 08:26:04;;;;;;;2.72;2.28;;;37.90;59.20;;;;;;5096250;28;20157;-82
2021/05/29 08:28:30;;;;;;;4.68;2.75;;;35.20;60.00;;;;;;5095556;28;20242;-82
2021/05/29 08:30:56;;;;;;;2.40;2.20;;;34.50;61.20;;;;;;5095963;28;20182;-82
2021/05/29 08:33:22;;;;;;;2.47;2.28;;;36.70;61.90;;;;;;5095816;28;20178;-81
2021/05/29 08:35:48;;;;;;;2.20;2.00;;;38.40;59.30;;;;;;5095894;28;20199;-83
2021/05/29 08:38:14;;;;;;;2.10;1.90;;;39.30;56.40;;;;;;5094224;28;20565;-84
2021/05/29 08:40:39;;;;;;;3.17;2.38;;;39.50;56.80;;;;;;5095446;28;20170;-84
2021/05/29 08:43:05;;;;;;;2.35;2.00;;;39.90;56.20;;;;;;5095997;28;20691;-80
2021/05/29 08:45:31;;;;;;;2.47;2.03;;;38.70;55.70;;;;;;5096028;28;20203;-82
2021/05/29 08:48:00;;;;;;;4.72;2.53;;;38.40;56.60;;;;;;5095515;28;20180;-82
2021/05/29 08:50:27;;;;;;;2.20;2.00;;;38.70;55.90;;;;;;5094077;28;20642;-82
2021/05/29 08:52:52;;;;;;;7.10;2.45;;;38.90;56.70;;;;;;5095795;28;20227;-81
2021/05/29 08:55:20;;;;;;;4.18;2.30;;;39.40;56.60;;;;;;5095451;28;20165;-82
2021/05/29 08:57:48;;;;;;;2.67;2.47;;;37.20;58.60;;;;;;5095745;28;20256;-80
2021/05/29 09:00:17;;;;;;;4.10;2.50;;;37.00;58.30;;;;;;5095301;28;20479;-80
2021/05/29 09:02:57;;;;;;;2.17;1.90;;;35.60;58.10;;;;;;5094750;28;20205;-81
2021/05/29 09:05:33;;;;;;;5.93;2.35;;;35.60;58.20;;;;;;5095076;28;20222;-80
2021/05/29 09:08:07;;;;;;;2.45;1.80;;;36.60;59.30;;;;;;5094069;28;20173;-80
2021/05/29 09:10:39;;;;;;;6.00;2.65;;;37.00;58.70;;;;;;5093170;28;20255;-80
2021/05/29 09:13:16;;;;;;;2.63;2.42;;;35.00;59.30;;;;;;5078637;28;20170;-81
2021/05/29 09:15:46;;;;;;;3.70;2.53;;;35.40;58.20;;;;;;5078176;28;20238;-82
2021/05/29 09:18:41;;;;;;;2.90;2.38;;;32.80;60.80;;;;;;5095160;28;20154;-82
2021/05/29 09:21:39;;;;;;;4.70;2.25;;;32.80;63.30;;;;;;5091486;28;20220;-83
2021/05/29 09:24:15;;;;;;;3.00;2.70;;;35.50;60.70;;;;;;5081782;28;20229;-84
2021/05/29 09:26:54;;;;;;;3.03;2.70;;;36.60;58.70;;;;;;5093676;28;20168;-84
2021/05/29 09:29:29;;;;;;;4.75;2.83;;;35.40;57.30;;;;;;5093968;28;20173;-84
2021/05/29 09:32:00;;;;;;;15.52;5.90;;;34.80;61.40;;;;;;5089469;28;20535;-83
2021/05/29 09:34:49;;;;;;;4.95;2.50;;;35.10;59.90;;;;;;5093176;28;20164;-82
2021/05/29 09:37:23;;;;;;;4.10;3.33;;;33.90;60.00;;;;;;5085585;28;20638;-83
2021/05/29 09:40:09;;;;;;;9.27;3.40;;;32.50;61.30;;;;;;5094526;28;20288;-80
2021/05/29 09:42:44;;;;;;;6.03;3.35;;;32.50;62.70;;;;;;5093724;28;20200;-84
2021/05/29 09:45:19;;;;;;;5.03;3.17;;;33.30;64.10;;;;;;5093481;28;20268;-91
2021/05/29 09:48:08;;;;;;;3.90;2.33;;;35.80;61.00;;;;;;5093309;28;20565;-84
2021/05/29 09:50:34;;;;;;;2.63;2.10;;;36.10;57.60;;;;;;5092829;28;20550;-82
2021/05/29 09:53:00;;;;;;;2.78;1.88;;;36.20;58.30;;;;;;5094195;28;20165;-84
2021/05/29 09:55:39;;;;;;;3.47;2.53;;;36.80;58.30;;;;;;5094463;28;20180;-81
2021/05/29 09:58:05;;;;;;;2.22;2.00;;;37.00;57.10;;;;;;5093961;28;20173;-81
2021/05/29 10:00:42;;;;;;;4.25;2.17;;;33.40;59.00;;;;;;5093675;28;20175;-80
2021/05/29 10:03:08;;;;;;;2.35;2.15;;;35.80;59.60;;;;;;5074551;28;20185;-80
2021/05/29 10:05:39;;;;;;;9.73;2.28;;;37.10;56.90;;;;;;5092783;28;20255;-82
2021/05/29 10:08:05;;;;;;;3.20;1.67;;;37.90;58.10;;;;;;5094222;28;20169;-82
2021/05/29 10:10:33;;;;;;;4.80;2.10;;;39.60;56.40;;;;;;5075522;28;20201;-81
2021/05/29 10:13:01;;;;;;;3.83;1.80;;;38.10;55.00;;;;;;5093577;28;20172;-81
2021/05/29 10:15:27;;;;;;;2.40;2.17;;;34.40;58.80;;;;;;5093509;28;20166;-81
2021/05/29 10:17:56;;;;;;;1.70;1.60;;;30.10;65.00;;;;;;5093852;28;20245;-84
2021/05/29 10:20:23;;;;;;;1.90;1.70;;;28.80;66.90;;;;;;5092831;28;20614;-81
2021/05/29 10:22:50;;;;;;;5.60;1.85;;;26.80;68.50;;;;;;5092559;28;20205;-79
2021/05/29 10:25:18;;;;;;;4.95;1.75;;;25.80;71.00;;;;;;5091968;28;20531;-82
2021/05/29 10:27:52;;;;;;;2.35;1.58;;;26.40;73.30;;;;;;5093340;28;20178;-80
2021/05/29 10:30:20;;;;;;;1.80;1.20;;;29.90;65.50;;;;;;5073709;28;20181;-78
2021/05/29 10:33:15;;;;;;;1.60;1.50;;;33.80;61.60;;;;;;5073367;28;20598;-78
2021/05/29 10:35:44;;;;;;;2.22;1.45;;;36.50;61.40;;;;;;5076065;28;20583;-78
2021/05/29 10:38:10;;;;;;;2.22;1.80;;;37.90;58.60;;;;;;5092090;28;20556;-78
2021/05/29 10:40:48;;;;;;;2.35;1.58;;;38.70;55.80;;;;;;5092011;28;20169;-80
2021/05/29 10:43:28;;;;;;;1.75;1.40;;;39.70;56.80;;;;;;5092009;28;20652;-80
2021/05/29 10:45:54;;;;;;;4.78;1.35;;;38.00;54.40;;;;;;5093711;28;20160;-80
2021/05/29 10:48:27;;;;;;;4.35;1.55;;;37.90;56.00;;;;;;5092155;28;20174;-79
2021/05/29 10:51:10;;;;;;;1.70;1.55;;;38.30;55.80;;;;;;5093419;28;20158;-78
2021/05/29 10:53:42;;;;;;;3.88;1.20;;;36.10;54.80;;;;;;5092206;28;20173;-77
2021/05/29 10:56:23;;;;;;;2.25;1.20;;;37.10;56.80;;;;;;5093650;28;20168;-78
2021/05/29 10:58:58;;;;;;;1.98;1.35;;;37.00;56.00;;;;;;5092576;28;20674;-78
2021/05/29 11:01:45;;;;;;;1.38;1.27;;;38.90;56.10;;;;;;5091650;28;20235;-77
2021/05/29 11:04:16;;;;;;;1.75;1.38;;;37.40;54.30;;;;;;5098358;28;20649;-79
2021/05/29 11:06:47;;;;;;;2.42;1.20;;;35.20;54.30;;;;;;5099069;28;20173;-88
2021/05/29 11:09:14;;;;;;;1.00;1.00;;;35.00;56.90;;;;;;5094239;28;20177;-88
2021/05/29 11:11:42;;;;;;;2.65;1.30;;;36.30;55.70;;;;;;5093738;28;20185;-85
2021/05/29 11:14:19;;;;;;;3.03;1.38;;;37.50;56.00;;;;;;5093730;28;20260;-87
2021/05/29 11:16:57;;;;;;;1.52;1.40;;;37.60;55.10;;;;;;5092511;28;20504;-87
2021/05/29 11:19:28;;;;;;;1.73;1.08;;;37.10;55.50;;;;;;5091947;28;20173;-86
2021/05/29 11:22:03;;;;;;;2.60;1.55;;;36.50;54.70;;;;;;5092968;28;20557;-87
2021/05/29 11:24:33;;;;;;;1.67;1.00;;;36.40;56.10;;;;;;5093921;28;20251;-86
2021/05/29 11:27:00;;;;;;;2.15;1.00;;;36.10;55.40;;;;;;5092225;28;20199;-87
2021/05/29 11:29:26;;;;;;;3.58;1.13;;;35.10;56.90;;;;;;5091969;28;20176;-87
2021/05/29 11:31:53;;;;;;;1.50;1.33;;;35.60;57.20;;;;;;5094125;28;20186;-86
2021/05/29 11:34:19;;;;;;;1.10;1.00;;;35.20;56.20;;;;;;5093432;28;20178;-86
2021/05/29 11:36:45;;;;;;;1.42;1.33;;;32.80;58.50;;;;;;5094011;28;20219;-86
2021/05/29 11:39:13;;;;;;;1.52;1.10;;;33.70;58.20;;;;;;5092860;28;20563;-86
2021/05/29 11:41:40;;;;;;;1.55;1.30;;;35.50;57.70;;;;;;5076214;28;20269;-86
2021/05/29 11:44:25;;;;;;;2.35;1.50;;;35.70;57.30;;;;;;5092429;28;20178;-86
2021/05/29 11:46:50;;;;;;;1.98;1.50;;;36.20;56.20;;;;;;5092158;28;20169;-86
2021/05/29 11:49:16;;;;;;;4.22;1.20;;;36.50;57.10;;;;;;5095315;28;20238;-87
2021/05/29 11:51:44;;;;;;;2.13;1.60;;;34.50;56.80;;;;;;5096235;28;20264;-86
2021/05/29 11:54:18;;;;;;;0.88;0.88;;;33.20;58.60;;;;;;5096284;28;20173;-87
2021/05/29 11:56:49;;;;;;;2.28;1.30;;;33.00;59.60;;;;;;5096368;28;20249;-87
2021/05/29 11:59:19;;;;;;;1.45;1.35;;;33.20;58.80;;;;;;5097560;28;20158;-88
2021/05/29 12:01:47;;;;;;;3.17;1.45;;;31.50;58.90;;;;;;5096891;28;20545;-86
2021/05/29 12:04:16;;;;;;;1.70;1.20;;;30.50;63.40;;;;;;5095854;28;20174;-87
2021/05/29 12:06:45;;;;;;;2.25;1.27;;;31.00;63.60;;;;;;5097198;28;20198;-86
2021/05/29 12:09:14;;;;;;;1.70;1.50;;;32.00;61.20;;;;;;5096186;28;20220;-87
2021/05/29 12:11:45;;;;;;;2.28;1.40;;;32.50;60.50;;;;;;5096943;28;20532;-88
2021/05/29 12:14:26;;;;;;;1.60;1.10;;;31.50;61.50;;;;;;5097659;28;20169;-85
2021/05/29 12:16:57;;;;;;;3.80;1.17;;;30.80;62.20;;;;;;5095869;28;20531;-87
2021/05/29 12:19:35;;;;;;;1.30;1.20;;;29.50;63.90;;;;;;5096089;28;20173;-86
2021/05/29 12:22:14;;;;;;;2.25;1.55;;;28.90;67.20;;;;;;5095697;28;20228;-87
2021/05/29 12:24:40;;;;;;;1.98;1.75;;;28.30;68.20;;;;;;5096547;28;20213;-87
2021/05/29 12:27:06;;;;;;;5.18;1.10;;;27.90;65.60;;;;;;5097925;28;20166;-89
2021/05/29 12:29:33;;;;;;;4.13;1.23;;;27.40;67.70;;;;;;5096215;28;20170;-90
2021/05/29 12:32:00;;;;;;;1.83;1.25;;;26.70;68.80;;;;;;5097322;28;20185;-87
2021/05/29 12:34:27;;;;;;;3.40;1.35;;;25.90;67.20;;;;;;5096273;28;20198;-88
2021/05/29 12:36:59;;;;;;;3.33;1.20;;;26.00;68.00;;;;;;5095284;28;20166;-85
2021/05/29 12:39:46;;;;;;;2.17;1.33;;;26.40;69.90;;;;;;5095524;28;20170;-88
2021/05/29 12:42:21;;;;;;;2.13;1.30;;;26.80;71.10;;;;;;5095350;28;20795;-86
2021/05/29 12:44:47;;;;;;;2.00;1.73;;;27.00;69.10;;;;;;5095943;28;20177;-86
2021/05/29 12:47:17;;;;;;;2.40;1.85;;;25.50;70.70;;;;;;5096051;28;20182;-87
2021/05/29 12:49:43;;;;;;;5.68;1.90;;;25.50;72.40;;;;;;5094233;28;20535;-86
2021/05/29 12:52:28;;;;;;;2.00;1.20;;;25.70;72.70;;;;;;5077468;28;20180;-83
2021/05/29 12:54:55;;;;;;;2.08;1.50;;;25.30;74.40;;;;;;5092936;28;20174;-88
2021/05/29 12:57:21;;;;;;;3.60;1.92;;;25.50;71.70;;;;;;5095726;28;20165;-83
2021/05/29 12:59:48;;;;;;;1.50;1.40;;;25.90;70.80;;;;;;5088992;28;20659;-79
2021/05/29 13:02:36;;;;;;;2.90;1.85;;;26.00;71.00;;;;;;5110453;28;20559;-77